sensor_id;sensor_type;location;lat;lon;timestamp;pressure;altitude;pressure_sealevel;temperature;humidity
11345;BME280;5727;42.600;23.028;2023-12-14T00:00:13;92697.75;;;12.41;100.00
11345;BME280;5727;42.600;23.028;2023-12-14T00:02:40;92695.91;;;12.42;100.00
11345;BME280;5727;42.600;23.028;2023-12-14T00:05:08;92686.13;;;12.39;100.00
11345;BME280;5727;42.600;23.028;2023-12-14T00:07:35;92684.22;;;12.39;100.00
11345;BME280;5727;42.600;23.028;2023-12-14T00:10:05;92689.47;;;12.39;100.00
11345;BME280;5727;42.600;23.028;2023-12-14T00:12:32;92703.38;;;12.40;100.00
11345;BME280;5727;42.600;23.028;2023-12-14T00:14:59;92697.69;;;12.34;100.00
11345;BME280;5727;42.600;23.028;2023-12-14T00:17:26;92708.53;;;12.29;100.00
11345;BME280;5727;42.600;23.028;2023-12-14T00:19:53;92699.94;;;12.32;100.00
11345;BME280;5727;42.600;23.028;2023-12-14T00:22:20;92694.66;;;12.32;100.00
11345;BME280;5727;42.600;23.028;2023-12-14T00:24:47;92700.31;;;12.34;100.00
11345;BME280;5727;42.600;23.028;2023-12-14T00:27:15;92696.19;;;12.33;100.00
11345;BME280;5727;42.600;23.028;2023-12-14T00:29:43;92696.53;;;12.32;100.00
11345;BME280;5727;42.600;23.028;2023-12-14T00:32:10;92697.25;;;12.29;100.00
11345;BME280;5727;42.600;23.028;2023-12-14T00:34:37;92689.34;;;12.25;100.00
11345;BME280;5727;42.600;23.028;2023-12-14T00:37:04;92695.41;;;12.29;100.00
11345;BME280;5727;42.600;23.028;2023-12-14T00:39:31;92694.59;;;12.25;100.00
11345;BME280;5727;42.600;23.028;2023-12-14T00:41:58;92705.09;;;12.25;100.00
11345;BME280;5727;42.600;23.028;2023-12-14T00:44:26;92702.88;;;12.27;100.00
11345;BME280;5727;42.600;23.028;2023-12-14T00:46:53;92708.97;;;12.35;100.00
11345;BME280;5727;42.600;23.028;2023-12-14T00:49:20;92702.94;;;12.34;100.00
11345;BME280;5727;42.600;23.028;2023-12-14T00:51:46;92710.81;;;12.34;100.00
11345;BME280;5727;42.600;23.028;2023-12-14T00:54:13;92716.84;;;12.35;100.00
11345;BME280;5727;42.600;23.028;2023-12-14T00:56:40;92713.47;;;12.38;100.00
11345;BME280;5727;42.600;23.028;2023-12-14T00:59:07;92712.03;;;12.40;100.00
11345;BME280;5727;42.600;23.028;2023-12-14T01:01:36;92705.25;;;12.39;100.00
11345;BME280;5727;42.600;23.028;2023-12-14T01:04:03;92707.16;;;12.42;100.00
11345;BME280;5727;42.600;23.028;2023-12-14T01:06:30;92698.50;;;12.38;100.00
11345;BME280;5727;42.600;23.028;2023-12-14T01:08:57;92694.81;;;12.46;100.00
11345;BME280;5727;42.600;23.028;2023-12-14T01:11:24;92690.34;;;12.50;100.00
11345;BME280;5727;42.600;23.028;2023-12-14T01:13:51;92691.84;;;12.51;100.00
11345;BME280;5727;42.600;23.028;2023-12-14T01:16:18;92688.13;;;12.52;100.00
11345;BME280;5727;42.600;23.028;2023-12-14T01:18:46;92688.16;;;12.56;100.00
11345;BME280;5727;42.600;23.028;2023-12-14T01:21:13;92697.97;;;12.62;99.39
11345;BME280;5727;42.600;23.028;2023-12-14T01:23:40;92698.75;;;12.66;99.37
11345;BME280;5727;42.600;23.028;2023-12-14T01:26:07;92688.25;;;12.66;99.19
11345;BME280;5727;42.600;23.028;2023-12-14T01:28:34;92683.38;;;12.68;99.42
11345;BME280;5727;42.600;23.028;2023-12-14T01:31:01;92685.94;;;12.61;99.42
11345;BME280;5727;42.600;23.028;2023-12-14T01:33:27;92682.19;;;12.62;99.13
11345;BME280;5727;42.600;23.028;2023-12-14T01:35:56;92689.38;;;12.65;99.02
11345;BME280;5727;42.600;23.028;2023-12-14T01:38:23;92686.66;;;12.58;98.83
11345;BME280;5727;42.600;23.028;2023-12-14T01:40:50;92683.72;;;12.63;98.69
11345;BME280;5727;42.600;23.028;2023-12-14T01:43:17;92686.75;;;12.65;98.54
11345;BME280;5727;42.600;23.028;2023-12-14T01:45:43;92685.63;;;12.70;98.62
11345;BME280;5727;42.600;23.028;2023-12-14T01:48:10;92676.97;;;12.66;99.12
11345;BME280;5727;42.600;23.028;2023-12-14T01:50:37;92685.63;;;12.66;99.11
11345;BME280;5727;42.600;23.028;2023-12-14T01:53:06;92669.44;;;12.61;99.24
11345;BME280;5727;42.600;23.028;2023-12-14T01:55:33;92672.78;;;12.58;99.91
11345;BME280;5727;42.600;23.028;2023-12-14T01:57:59;92691.91;;;12.58;100.00
11345;BME280;5727;42.600;23.028;2023-12-14T02:00:34;92685.09;;;12.50;100.00
11345;BME280;5727;42.600;23.028;2023-12-14T02:03:03;92685.44;;;12.49;100.00
11345;BME280;5727;42.600;23.028;2023-12-14T02:05:30;92670.06;;;12.47;100.00
11345;BME280;5727;42.600;23.028;2023-12-14T02:07:56;92649.78;;;12.48;100.00
11345;BME280;5727;42.600;23.028;2023-12-14T02:10:25;92658.38;;;12.45;100.00
11345;BME280;5727;42.600;23.028;2023-12-14T02:12:52;92650.88;;;12.43;100.00
11345;BME280;5727;42.600;23.028;2023-12-14T02:15:19;92647.16;;;12.44;100.00
11345;BME280;5727;42.600;23.028;2023-12-14T02:17:46;92651.25;;;12.45;100.00
11345;BME280;5727;42.600;23.028;2023-12-14T02:20:13;92642.28;;;12.46;100.00
11345;BME280;5727;42.600;23.028;2023-12-14T02:22:51;92650.16;;;12.46;100.00
11345;BME280;5727;42.600;23.028;2023-12-14T02:25:18;92626.19;;;12.51;99.71
11345;BME280;5727;42.600;23.028;2023-12-14T02:27:45;92637.09;;;12.53;99.62
11345;BME280;5727;42.600;23.028;2023-12-14T02:30:13;92628.84;;;12.55;99.93
11345;BME280;5727;42.600;23.028;2023-12-14T02:32:41;92638.25;;;12.59;99.44
11345;BME280;5727;42.600;23.028;2023-12-14T02:35:08;92636.41;;;12.60;99.02
11345;BME280;5727;42.600;23.028;2023-12-14T02:37:35;92631.16;;;12.63;98.70
11345;BME280;5727;42.600;23.028;2023-12-14T02:40:08;92631.22;;;12.70;98.14
11345;BME280;5727;42.600;23.028;2023-12-14T02:42:35;92641.75;;;12.74;97.65
11345;BME280;5727;42.600;23.028;2023-12-14T02:45:02;92640.28;;;12.76;97.29
11345;BME280;5727;42.600;23.028;2023-12-14T02:47:29;92648.91;;;12.77;96.81
11345;BME280;5727;42.600;23.028;2023-12-14T02:49:56;92641.78;;;12.77;96.75
11345;BME280;5727;42.600;23.028;2023-12-14T02:52:23;92648.94;;;12.80;96.68
11345;BME280;5727;42.600;23.028;2023-12-14T02:54:50;92660.94;;;12.78;96.40
11345;BME280;5727;42.600;23.028;2023-12-14T02:57:19;92667.00;;;12.85;96.07
11345;BME280;5727;42.600;23.028;2023-12-14T02:59:46;92664.31;;;12.78;96.10
11345;BME280;5727;42.600;23.028;2023-12-14T03:02:12;92664.75;;;12.84;95.86
11345;BME280;5727;42.600;23.028;2023-12-14T03:04:40;92667.38;;;12.87;96.08
11345;BME280;5727;42.600;23.028;2023-12-14T03:07:07;92674.50;;;12.83;95.95
11345;BME280;5727;42.600;23.028;2023-12-14T03:09:34;92674.16;;;12.88;95.96
11345;BME280;5727;42.600;23.028;2023-12-14T03:12:01;92669.66;;;12.89;95.62
11345;BME280;5727;42.600;23.028;2023-12-14T03:14:33;92666.66;;;12.87;95.63
11345;BME280;5727;42.600;23.028;2023-12-14T03:17:00;92677.16;;;12.87;95.87
11345;BME280;5727;42.600;23.028;2023-12-14T03:19:27;92668.91;;;12.88;95.65
11345;BME280;5727;42.600;23.028;2023-12-14T03:21:54;92671.16;;;12.86;95.53
11345;BME280;5727;42.600;23.028;2023-12-14T03:24:21;92664.03;;;12.87;95.73
11345;BME280;5727;42.600;23.028;2023-12-14T03:26:48;92667.78;;;12.89;95.56
11345;BME280;5727;42.600;23.028;2023-12-14T03:29:16;92668.88;;;12.85;95.75
11345;BME280;5727;42.600;23.028;2023-12-14T03:31:45;92668.88;;;12.85;95.93
11345;BME280;5727;42.600;23.028;2023-12-14T03:34:12;92664.38;;;12.85;96.01
11345;BME280;5727;42.600;23.028;2023-12-14T03:36:39;92663.25;;;12.83;96.25
11345;BME280;5727;42.600;23.028;2023-12-14T03:39:06;92662.09;;;12.80;96.67
11345;BME280;5727;42.600;23.028;2023-12-14T03:41:33;92642.53;;;12.78;96.90
11345;BME280;5727;42.600;23.028;2023-12-14T03:43:59;92660.56;;;12.79;96.56
11345;BME280;5727;42.600;23.028;2023-12-14T03:46:26;92653.41;;;12.76;96.48
11345;BME280;5727;42.600;23.028;2023-12-14T03:48:55;92654.91;;;12.77;96.80
11345;BME280;5727;42.600;23.028;2023-12-14T03:51:22;92651.56;;;12.77;96.81
11345;BME280;5727;42.600;23.028;2023-12-14T03:53:49;92632.41;;;12.76;96.50
11345;BME280;5727;42.600;23.028;2023-12-14T03:56:16;92641.06;;;12.80;96.67
11345;BME280;5727;42.600;23.028;2023-12-14T03:58:43;92641.44;;;12.79;96.31
11345;BME280;5727;42.600;23.028;2023-12-14T04:01:16;92637.28;;;12.78;96.17
11345;BME280;5727;42.600;23.028;2023-12-14T04:03:43;92638.81;;;12.79;96.23
11345;BME280;5727;42.600;23.028;2023-12-14T04:06:11;92639.53;;;12.79;96.63
11345;BME280;5727;42.600;23.028;2023-12-14T04:08:39;92640.31;;;12.80;96.58
11345;BME280;5727;42.600;23.028;2023-12-14T04:11:06;92647.03;;;12.77;96.85
11345;BME280;5727;42.600;23.028;2023-12-14T04:13:33;92643.69;;;12.80;96.77
11345;BME280;5727;42.600;23.028;2023-12-14T04:16:00;92645.16;;;12.78;96.54
11345;BME280;5727;42.600;23.028;2023-12-14T04:18:27;92643.28;;;12.78;96.39
11345;BME280;5727;42.600;23.028;2023-12-14T04:20:54;92644.06;;;12.79;95.88
11345;BME280;5727;42.600;23.028;2023-12-14T04:23:23;92655.31;;;12.79;95.72
11345;BME280;5727;42.600;23.028;2023-12-14T04:25:50;92644.09;;;12.82;96.13
11345;BME280;5727;42.600;23.028;2023-12-14T04:28:17;92648.94;;;12.80;95.97
11345;BME280;5727;42.600;23.028;2023-12-14T04:30:43;92637.69;;;12.83;95.22
11345;BME280;5727;42.600;23.028;2023-12-14T04:33:10;92647.78;;;12.78;95.25
11345;BME280;5727;42.600;23.028;2023-12-14T04:35:38;92642.56;;;12.81;94.97
11345;BME280;5727;42.600;23.028;2023-12-14T04:38:05;92641.78;;;12.77;95.09
11345;BME280;5727;42.600;23.028;2023-12-14T04:40:33;92644.88;;;12.86;94.83
11345;BME280;5727;42.600;23.028;2023-12-14T04:43:00;92653.13;;;12.85;95.06
11345;BME280;5727;42.600;23.028;2023-12-14T04:45:27;92641.09;;;12.87;94.85
11345;BME280;5727;42.600;23.028;2023-12-14T04:47:53;92649.72;;;12.84;95.34
11345;BME280;5727;42.600;23.028;2023-12-14T04:50:20;92653.84;;;12.85;94.86
11345;BME280;5727;42.600;23.028;2023-12-14T04:52:47;92656.16;;;12.87;95.12
11345;BME280;5727;42.600;23.028;2023-12-14T04:55:14;92647.13;;;12.88;95.06
11345;BME280;5727;42.600;23.028;2023-12-14T04:57:43;92648.59;;;12.85;95.06
11345;BME280;5727;42.600;23.028;2023-12-14T05:00:13;92654.25;;;12.87;95.14
11345;BME280;5727;42.600;23.028;2023-12-14T05:02:40;92652.38;;;12.84;95.29
11345;BME280;5727;42.600;23.028;2023-12-14T05:05:07;92642.59;;;12.85;95.03
11345;BME280;5727;42.600;23.028;2023-12-14T05:07:34;92647.41;;;12.79;95.23
11345;BME280;5727;42.600;23.028;2023-12-14T05:10:00;92648.56;;;12.82;94.74
11345;BME280;5727;42.600;23.028;2023-12-14T05:12:27;92650.91;;;12.91;94.52
11345;BME280;5727;42.600;23.028;2023-12-14T05:14:58;92664.41;;;12.89;94.73
11345;BME280;5727;42.600;23.028;2023-12-14T05:17:25;92657.66;;;12.92;94.41
11345;BME280;5727;42.600;23.028;2023-12-14T05:19:52;92655.03;;;12.92;94.15
11345;BME280;5727;42.600;23.028;2023-12-14T05:22:19;92651.31;;;12.93;94.28
11345;BME280;5727;42.600;23.028;2023-12-14T05:24:47;92647.16;;;12.92;94.05
11345;BME280;5727;42.600;23.028;2023-12-14T05:27:14;92647.16;;;12.92;94.30
11345;BME280;5727;42.600;23.028;2023-12-14T05:29:40;92659.19;;;12.93;93.95
11345;BME280;5727;42.600;23.028;2023-12-14T05:32:09;92660.69;;;12.97;93.51
11345;BME280;5727;42.600;23.028;2023-12-14T05:34:36;92662.66;;;13.04;93.10
11345;BME280;5727;42.600;23.028;2023-12-14T05:37:03;92662.69;;;13.07;93.18
11345;BME280;5727;42.600;23.028;2023-12-14T05:39:30;92668.28;;;13.02;92.97
11345;BME280;5727;42.600;23.028;2023-12-14T05:41:57;92674.34;;;13.06;92.77
11345;BME280;5727;42.600;23.028;2023-12-14T05:44:24;92668.34;;;13.09;92.65
11345;BME280;5727;42.600;23.028;2023-12-14T05:46:51;92657.06;;;13.09;92.61
11345;BME280;5727;42.600;23.028;2023-12-14T05:49:19;92660.06;;;13.11;92.54
11345;BME280;5727;42.600;23.028;2023-12-14T05:51:46;92668.34;;;13.09;92.60
11345;BME280;5727;42.600;23.028;2023-12-14T05:54:13;92662.31;;;13.09;93.00
11345;BME280;5727;42.600;23.028;2023-12-14T05:56:40;92655.94;;;13.10;92.85
11345;BME280;5727;42.600;23.028;2023-12-14T05:59:07;92669.13;;;13.13;92.17
11345;BME280;5727;42.600;23.028;2023-12-14T06:01:34;92660.47;;;13.13;92.05
11345;BME280;5727;42.600;23.028;2023-12-14T06:04:02;92665.00;;;13.16;92.06
11345;BME280;5727;42.600;23.028;2023-12-14T06:06:30;92682.69;;;13.19;91.67
11345;BME280;5727;42.600;23.028;2023-12-14T06:08:57;92678.50;;;13.14;92.02
11345;BME280;5727;42.600;23.028;2023-12-14T06:11:24;92672.91;;;13.16;91.73
11345;BME280;5727;42.600;23.028;2023-12-14T06:13:51;92673.66;;;13.20;91.45
11345;BME280;5727;42.600;23.028;2023-12-14T06:16:18;92689.44;;;13.20;91.36
11345;BME280;5727;42.600;23.028;2023-12-14T06:18:45;92685.69;;;13.21;91.34
11345;BME280;5727;42.600;23.028;2023-12-14T06:21:12;92687.97;;;13.22;91.08
11345;BME280;5727;42.600;23.028;2023-12-14T06:23:40;92697.41;;;13.27;91.00
11345;BME280;5727;42.600;23.028;2023-12-14T06:26:07;92688.75;;;13.26;91.14
11345;BME280;5727;42.600;23.028;2023-12-14T06:28:35;92696.25;;;13.28;91.12
11345;BME280;5727;42.600;23.028;2023-12-14T06:31:03;92687.97;;;13.26;91.17
11345;BME280;5727;42.600;23.028;2023-12-14T06:33:31;92694.41;;;13.28;91.17
11345;BME280;5727;42.600;23.028;2023-12-14T06:35:58;92696.28;;;13.31;91.27
11345;BME280;5727;42.600;23.028;2023-12-14T06:38:25;92690.31;;;13.34;91.07
11345;BME280;5727;42.600;23.028;2023-12-14T06:40:53;92712.03;;;13.28;91.19
11345;BME280;5727;42.600;23.028;2023-12-14T06:43:20;92688.75;;;13.26;91.28
11345;BME280;5727;42.600;23.028;2023-12-14T06:45:47;92691.78;;;13.32;91.39
11345;BME280;5727;42.600;23.028;2023-12-14T06:48:14;92705.31;;;13.30;90.98
11345;BME280;5727;42.600;23.028;2023-12-14T06:50:41;92696.28;;;13.31;91.34
11345;BME280;5727;42.600;23.028;2023-12-14T06:53:08;92701.59;;;13.38;90.97
11345;BME280;5727;42.600;23.028;2023-12-14T06:55:35;92691.50;;;13.44;90.46
11345;BME280;5727;42.600;23.028;2023-12-14T06:58:04;92693.03;;;13.48;90.65
11345;BME280;5727;42.600;23.028;2023-12-14T07:00:36;92697.91;;;13.50;89.96
11345;BME280;5727;42.600;23.028;2023-12-14T07:03:03;92713.38;;;13.58;90.03
11345;BME280;5727;42.600;23.028;2023-12-14T07:05:30;92708.09;;;13.58;89.91
11345;BME280;5727;42.600;23.028;2023-12-14T07:07:57;92702.50;;;13.60;89.74
11345;BME280;5727;42.600;23.028;2023-12-14T07:10:25;92704.41;;;13.66;89.90
11345;BME280;5727;42.600;23.028;2023-12-14T07:12:52;92710.03;;;13.68;90.09
11345;BME280;5727;42.600;23.028;2023-12-14T07:15:20;92712.28;;;13.66;90.16
11345;BME280;5727;42.600;23.028;2023-12-14T07:17:47;92709.66;;;13.70;89.83
11345;BME280;5727;42.600;23.028;2023-12-14T07:20:14;92719.44;;;13.66;90.80
11345;BME280;5727;42.600;23.028;2023-12-14T07:22:41;92724.75;;;13.73;90.23
11345;BME280;5727;42.600;23.028;2023-12-14T07:25:08;92726.63;;;13.76;89.67
11345;BME280;5727;42.600;23.028;2023-12-14T07:27:35;92726.25;;;13.77;89.56
11345;BME280;5727;42.600;23.028;2023-12-14T07:30:02;92732.69;;;13.84;89.37
11345;BME280;5727;42.600;23.028;2023-12-14T07:32:30;92729.66;;;13.82;89.50
11345;BME280;5727;42.600;23.028;2023-12-14T07:34:57;92747.69;;;13.76;89.67
11345;BME280;5727;42.600;23.028;2023-12-14T07:37:24;92730.84;;;13.88;89.45
11345;BME280;5727;42.600;23.028;2023-12-14T07:39:51;92727.47;;;13.91;89.73
11345;BME280;5727;42.600;23.028;2023-12-14T07:42:18;92721.47;;;13.94;89.65
11345;BME280;5727;42.600;23.028;2023-12-14T07:44:45;92736.16;;;13.98;89.20
11345;BME280;5727;42.600;23.028;2023-12-14T07:47:13;92738.75;;;13.95;89.33
11345;BME280;5727;42.600;23.028;2023-12-14T07:49:41;92727.88;;;13.96;89.21
11345;BME280;5727;42.600;23.028;2023-12-14T07:52:08;92744.38;;;13.90;89.25
11345;BME280;5727;42.600;23.028;2023-12-14T07:54:36;92744.78;;;13.95;90.09
11345;BME280;5727;42.600;23.028;2023-12-14T07:57:03;92750.81;;;13.99;89.52
11345;BME280;5727;42.600;23.028;2023-12-14T07:59:30;92734.34;;;14.16;89.24
11345;BME280;5727;42.600;23.028;2023-12-14T08:01:57;92732.13;;;14.25;87.83
11345;BME280;5727;42.600;23.028;2023-12-14T08:04:24;92734.38;;;14.23;88.23
11345;BME280;5727;42.600;23.028;2023-12-14T08:06:53;92749.53;;;14.37;87.72
11345;BME280;5727;42.600;23.028;2023-12-14T08:09:19;92743.53;;;14.50;87.57
11345;BME280;5727;42.600;23.028;2023-12-14T08:11:46;92745.03;;;14.51;87.16
11345;BME280;5727;42.600;23.028;2023-12-14T08:14:13;92745.81;;;14.62;86.80
11345;BME280;5727;42.600;23.028;2023-12-14T08:16:40;92751.09;;;14.69;86.33
11345;BME280;5727;42.600;23.028;2023-12-14T08:19:07;92749.22;;;14.74;85.85
11345;BME280;5727;42.600;23.028;2023-12-14T08:21:34;92746.63;;;14.77;85.61
11345;BME280;5727;42.600;23.028;2023-12-14T08:24:03;92742.84;;;14.75;85.76
11345;BME280;5727;42.600;23.028;2023-12-14T08:26:30;92734.91;;;14.60;85.57
11345;BME280;5727;42.600;23.028;2023-12-14T08:28:57;92741.31;;;14.70;85.63
11345;BME280;5727;42.600;23.028;2023-12-14T08:31:24;92742.47;;;14.69;85.66
11345;BME280;5727;42.600;23.028;2023-12-14T08:33:52;92745.09;;;14.73;85.71
11345;BME280;5727;42.600;23.028;2023-12-14T08:36:19;92750.03;;;14.85;85.57
11345;BME280;5727;42.600;23.028;2023-12-14T08:38:45;92748.88;;;14.86;85.22
11345;BME280;5727;42.600;23.028;2023-12-14T08:41:14;92751.16;;;14.84;85.20
11345;BME280;5727;42.600;23.028;2023-12-14T08:43:41;92750.78;;;14.89;85.07
11345;BME280;5727;42.600;23.028;2023-12-14T08:46:08;92754.19;;;15.00;84.76
11345;BME280;5727;42.600;23.028;2023-12-14T08:48:36;92746.66;;;15.02;84.37
11345;BME280;5727;42.600;23.028;2023-12-14T08:51:03;92743.25;;;14.98;84.54
11345;BME280;5727;42.600;23.028;2023-12-14T08:53:30;92739.84;;;15.04;84.73
11345;BME280;5727;42.600;23.028;2023-12-14T08:55:58;92744.41;;;15.07;84.55
11345;BME280;5727;42.600;23.028;2023-12-14T08:58:26;92746.66;;;15.16;84.07
11345;BME280;5727;42.600;23.028;2023-12-14T09:00:53;92739.88;;;15.15;84.00
11345;BME280;5727;42.600;23.028;2023-12-14T09:03:20;92742.53;;;15.15;83.67
11345;BME280;5727;42.600;23.028;2023-12-14T09:05:47;92720.28;;;15.16;83.75
11345;BME280;5727;42.600;23.028;2023-12-14T09:08:14;92727.44;;;15.19;84.30
11345;BME280;5727;42.600;23.028;2023-12-14T09:10:41;92735.34;;;15.22;84.39
11345;BME280;5727;42.600;23.028;2023-12-14T09:13:08;92727.06;;;15.17;83.82
11345;BME280;5727;42.600;23.028;2023-12-14T09:15:36;92718.41;;;15.13;84.42
11345;BME280;5727;42.600;23.028;2023-12-14T09:18:03;92726.28;;;15.02;84.77
11345;BME280;5727;42.600;23.028;2023-12-14T09:20:30;92728.56;;;15.07;84.87
11345;BME280;5727;42.600;23.028;2023-12-14T09:22:57;92727.84;;;15.17;84.75
11345;BME280;5727;42.600;23.028;2023-12-14T09:25:24;92728.94;;;15.20;84.17
11345;BME280;5727;42.600;23.028;2023-12-14T09:27:51;92730.47;;;15.24;83.90
11345;BME280;5727;42.600;23.028;2023-12-14T09:30:18;92741.75;;;15.32;83.59
11345;BME280;5727;42.600;23.028;2023-12-14T09:32:47;92734.59;;;15.36;83.82
11345;BME280;5727;42.600;23.028;2023-12-14T09:35:14;92732.72;;;15.36;83.99
11345;BME280;5727;42.600;23.028;2023-12-14T09:37:41;92739.91;;;15.50;83.87
11345;BME280;5727;42.600;23.028;2023-12-14T09:40:08;92730.47;;;15.60;82.43
11345;BME280;5727;42.600;23.028;2023-12-14T09:42:38;92738.75;;;15.65;82.59
11345;BME280;5727;42.600;23.028;2023-12-14T09:45:07;92741.38;;;15.72;82.91
11345;BME280;5727;42.600;23.028;2023-12-14T09:47:35;92747.03;;;15.78;82.93
11345;BME280;5727;42.600;23.028;2023-12-14T09:50:04;92739.88;;;15.78;82.83
11345;BME280;5727;42.600;23.028;2023-12-14T09:52:31;92736.06;;;15.79;81.82
11345;BME280;5727;42.600;23.028;2023-12-14T09:54:59;92740.19;;;15.91;81.88
11345;BME280;5727;42.600;23.028;2023-12-14T09:57:29;92727.75;;;15.95;81.59
11345;BME280;5727;42.600;23.028;2023-12-14T09:59:56;92731.50;;;15.97;80.99
11345;BME280;5727;42.600;23.028;2023-12-14T10:02:25;92733.44;;;15.86;81.14
11345;BME280;5727;42.600;23.028;2023-12-14T10:04:53;92741.38;;;15.76;81.91
11345;BME280;5727;42.600;23.028;2023-12-14T10:07:22;92728.97;;;15.48;83.16
11345;BME280;5727;42.600;23.028;2023-12-14T10:09:49;92740.66;;;15.47;84.85
11345;BME280;5727;42.600;23.028;2023-12-14T10:12:18;92736.13;;;15.44;85.96
11345;BME280;5727;42.600;23.028;2023-12-14T10:14:48;92734.22;;;15.41;85.54
11345;BME280;5727;42.600;23.028;2023-12-14T10:17:26;92741.75;;;15.32;86.37
11345;BME280;5727;42.600;23.028;2023-12-14T10:19:57;92735.75;;;15.17;89.46
11345;BME280;5727;42.600;23.028;2023-12-14T10:22:30;92739.84;;;14.80;93.78
11345;BME280;5727;42.600;23.028;2023-12-14T10:24:58;92742.84;;;14.68;95.04
11345;BME280;5727;42.600;23.028;2023-12-14T10:27:26;92737.50;;;14.46;96.81
11345;BME280;5727;42.600;23.028;2023-12-14T10:29:53;92744.97;;;14.34;98.77
11345;BME280;5727;42.600;23.028;2023-12-14T10:32:23;92745.63;;;14.13;100.00
11345;BME280;5727;42.600;23.028;2023-12-14T10:34:50;92744.84;;;14.06;100.00
11345;BME280;5727;42.600;23.028;2023-12-14T10:37:17;92750.41;;;13.87;100.00
11345;BME280;5727;42.600;23.028;2023-12-14T10:39:46;92753.00;;;13.83;100.00
11345;BME280;5727;42.600;23.028;2023-12-14T10:42:16;92754.13;;;13.82;100.00
11345;BME280;5727;42.600;23.028;2023-12-14T10:44:45;92773.19;;;13.65;100.00
11345;BME280;5727;42.600;23.028;2023-12-14T10:47:15;92776.22;;;13.67;100.00
11345;BME280;5727;42.600;23.028;2023-12-14T10:49:43;92805.19;;;13.70;100.00
11345;BME280;5727;42.600;23.028;2023-12-14T10:52:14;92813.19;;;13.37;100.00
11345;BME280;5727;42.600;23.028;2023-12-14T10:54:41;92810.06;;;13.21;100.00
11345;BME280;5727;42.600;23.028;2023-12-14T10:57:10;92823.91;;;13.15;100.00
11345;BME280;5727;42.600;23.028;2023-12-14T10:59:37;92830.34;;;13.21;100.00
11345;BME280;5727;42.600;23.028;2023-12-14T11:02:07;92832.94;;;13.14;100.00
11345;BME280;5727;42.600;23.028;2023-12-14T11:04:54;92837.28;;;13.03;100.00
11345;BME280;5727;42.600;23.028;2023-12-14T11:07:43;92843.78;;;13.12;100.00
11345;BME280;5727;42.600;23.028;2023-12-14T11:10:10;92863.69;;;13.10;100.00
11345;BME280;5727;42.600;23.028;2023-12-14T11:12:50;92871.34;;;12.29;100.00
11345;BME280;5727;42.600;23.028;2023-12-14T11:15:18;92881.84;;;12.03;100.00
11345;BME280;5727;42.600;23.028;2023-12-14T11:20:49;92886.59;;;11.68;100.00
11345;BME280;5727;42.600;23.028;2023-12-14T11:23:17;92893.88;;;11.59;100.00
11345;BME280;5727;42.600;23.028;2023-12-14T11:25:53;92896.81;;;11.31;100.00
11345;BME280;5727;42.600;23.028;2023-12-14T11:28:21;92899.94;;;11.18;100.00
11345;BME280;5727;42.600;23.028;2023-12-14T11:30:48;92901.69;;;11.10;100.00
11345;BME280;5727;42.600;23.028;2023-12-14T11:33:16;92909.06;;;11.04;100.00
11345;BME280;5727;42.600;23.028;2023-12-14T11:35:43;92904.09;;;10.99;100.00
11345;BME280;5727;42.600;23.028;2023-12-14T11:38:10;92906.38;;;11.01;100.00
11345;BME280;5727;42.600;23.028;2023-12-14T11:40:38;92930.25;;;10.77;100.00
11345;BME280;5727;42.600;23.028;2023-12-14T11:43:05;92929.00;;;10.71;100.00
11345;BME280;5727;42.600;23.028;2023-12-14T11:45:35;92933.81;;;10.69;100.00
11345;BME280;5727;42.600;23.028;2023-12-14T11:48:02;92944.66;;;10.86;100.00
11345;BME280;5727;42.600;23.028;2023-12-14T11:50:31;92930.72;;;10.63;100.00
11345;BME280;5727;42.600;23.028;2023-12-14T11:52:59;92951.94;;;10.39;100.00
11345;BME280;5727;42.600;23.028;2023-12-14T11:55:29;92948.97;;;10.41;100.00
11345;BME280;5727;42.600;23.028;2023-12-14T11:57:57;92946.88;;;9.99;100.00
11345;BME280;5727;42.600;23.028;2023-12-14T12:00:25;92952.72;;;9.93;100.00
11345;BME280;5727;42.600;23.028;2023-12-14T12:03:07;92951.53;;;9.90;100.00
11345;BME280;5727;42.600;23.028;2023-12-14T12:05:37;92943.44;;;9.80;100.00
11345;BME280;5727;42.600;23.028;2023-12-14T12:08:05;92944.97;;;9.81;100.00
11345;BME280;5727;42.600;23.028;2023-12-14T12:10:33;92946.56;;;9.85;100.00
11345;BME280;5727;42.600;23.028;2023-12-14T12:13:02;92939.78;;;10.00;100.00
11345;BME280;5727;42.600;23.028;2023-12-14T12:15:31;92951.63;;;10.09;100.00
11345;BME280;5727;42.600;23.028;2023-12-14T12:18:00;92942.00;;;10.13;100.00
11345;BME280;5727;42.600;23.028;2023-12-14T12:20:26;92944.75;;;10.05;100.00
11345;BME280;5727;42.600;23.028;2023-12-14T12:22:53;92957.25;;;10.27;100.00
11345;BME280;5727;42.600;23.028;2023-12-14T12:25:21;92937.03;;;10.43;100.00
11345;BME280;5727;42.600;23.028;2023-12-14T12:27:48;92943.59;;;10.53;100.00
11345;BME280;5727;42.600;23.028;2023-12-14T12:30:15;92954.63;;;10.43;100.00
11345;BME280;5727;42.600;23.028;2023-12-14T12:32:42;92940.34;;;10.40;100.00
11345;BME280;5727;42.600;23.028;2023-12-14T12:35:11;92961.13;;;10.33;100.00
11345;BME280;5727;42.600;23.028;2023-12-14T12:37:39;92952.72;;;10.43;100.00
11345;BME280;5727;42.600;23.028;2023-12-14T12:40:07;92939.22;;;10.41;100.00
11345;BME280;5727;42.600;23.028;2023-12-14T12:42:34;92965.03;;;10.39;100.00
11345;BME280;5727;42.600;23.028;2023-12-14T12:45:01;92958.53;;;10.33;100.00
11345;BME280;5727;42.600;23.028;2023-12-14T12:47:29;92958.63;;;10.21;100.00
11345;BME280;5727;42.600;23.028;2023-12-14T12:49:56;92957.09;;;10.20;100.00
11345;BME280;5727;42.600;23.028;2023-12-14T12:52:24;92961.13;;;10.33;100.00
11345;BME280;5727;42.600;23.028;2023-12-14T12:54:52;92983.91;;;10.48;100.00
11345;BME280;5727;42.600;23.028;2023-12-14T12:57:19;92962.78;;;10.41;100.00
11345;BME280;5727;42.600;23.028;2023-12-14T12:59:46;92948.47;;;10.35;100.00
11345;BME280;5727;42.600;23.028;2023-12-14T13:02:13;92971.75;;;10.40;100.00